PWSweather.com
Personal Weather Stations
Station Observations
NOCONAWX
Sherman Street, Nocona, TX 76255

Sherman StreetNocona, TX 76255

Lat: 33.7851771, Lon: -97.7248693

Elevation: 981

Station Type: Davis 6152

http://www.noconaweather.com

Latest ConditionsUpdated 5:30:01 PM CST Saturday, Dec 20, 2014
Currently Today's Max Today's Min Today's Average
Temperature 43.6°F6.4°C 43.9°F6.6°C 41.8°F5.4°C 42.6°F5.9°C
Dew Point 41.4°F5.2°C 41.5°F5.3°C 38.6°F3.7°C 39.4°F4.1°C
Winds Calm Calm 2.0 mph WSW3.2 kmh WSW - 0.3 mph 0.5 kmh
Wind Gusts 3.0 mph4.8 kmh 4.0 mph6.4 kmh - -
Humidity 92% 93% 86% 89%
Pressure 30.18 in1022.0 mb 30.29 in1025.7 mb 30.18 in1022.0 mb -
Hour Temp Dew Point Humidity Winds Wind Gusts Pressure Precip Precip Rate Daily Precip Total
05:30 PM 43.6°F6.4°C 41.4°F5.2°C 92% Calm Calm 3.0 mph4.8 kmh 30.18 in1022.0 mb 0.00 in0.0 mm 0.00 in/hr0.0 mm/hr 0.00 in0.0 mm
05:15 PM 43.7°F6.5°C 41.5°F5.3°C 92% Calm Calm 2.0 mph3.2 kmh 30.18 in1022.0 mb 0.00 in0.0 mm 0.00 in/hr0.0 mm/hr 0.00 in0.0 mm
05:00 PM 43.7°F6.5°C 41.5°F5.3°C 92% Calm Calm 1.0 mph1.6 kmh 30.18 in1022.0 mb 0.00 in0.0 mm 0.00 in/hr0.0 mm/hr 0.00 in0.0 mm
04:45 PM 43.7°F6.5°C 41.2°F5.1°C 91% 1.0 mph SSE1.6 kmh SSE 1.0 mph1.6 kmh 30.19 in1022.4 mb 0.00 in0.0 mm 0.00 in/hr0.0 mm/hr 0.00 in0.0 mm
04:30 PM 43.8°F6.6°C 41.3°F5.2°C 91% 1.0 mph SW1.6 kmh SW 2.0 mph3.2 kmh 30.18 in1022.0 mb 0.00 in0.0 mm 0.00 in/hr0.0 mm/hr 0.00 in0.0 mm
04:15 PM 43.8°F6.6°C 41.1°F5.1°C 90% 1.0 mph SSE1.6 kmh SSE 4.0 mph6.4 kmh 30.18 in1022.0 mb 0.00 in0.0 mm 0.00 in/hr0.0 mm/hr 0.00 in0.0 mm
04:00 PM 43.9°F6.6°C 40.9°F4.9°C 89% Calm Calm 4.0 mph6.4 kmh 30.18 in1022.0 mb 0.00 in0.0 mm 0.00 in/hr0.0 mm/hr 0.00 in0.0 mm
03:45 PM 43.8°F6.6°C 41.1°F5.1°C 90% 1.0 mph SW1.6 kmh SW 3.0 mph4.8 kmh 30.19 in1022.4 mb 0.00 in0.0 mm 0.00 in/hr0.0 mm/hr 0.00 in0.0 mm
03:30 PM 43.6°F6.4°C 41.1°F5.1°C 91% Calm Calm 1.0 mph1.6 kmh 30.19 in1022.4 mb 0.00 in0.0 mm 0.00 in/hr0.0 mm/hr 0.00 in0.0 mm
03:15 PM 43.2°F6.2°C 40.8°F4.9°C 91% Calm Calm 2.0 mph3.2 kmh 30.20 in1022.7 mb 0.00 in0.0 mm 0.00 in/hr0.0 mm/hr 0.00 in0.0 mm
03:00 PM 42.9°F6.1°C 40.5°F4.7°C 91% Calm Calm 1.0 mph1.6 kmh 30.20 in1022.7 mb 0.00 in0.0 mm 0.00 in/hr0.0 mm/hr 0.00 in0.0 mm
02:45 PM 42.9°F6.1°C 40.5°F4.7°C 91% Calm Calm 1.0 mph1.6 kmh 30.21 in1023.0 mb 0.00 in0.0 mm 0.00 in/hr0.0 mm/hr 0.00 in0.0 mm
02:30 PM 43.0°F6.1°C 40.6°F4.8°C 91% Calm Calm 2.0 mph3.2 kmh 30.20 in1022.7 mb 0.00 in0.0 mm 0.00 in/hr0.0 mm/hr 0.00 in0.0 mm
02:15 PM 42.8°F6.0°C 40.4°F4.7°C 91% Calm Calm -- 30.21 in1023.0 mb 0.00 in0.0 mm 0.00 in/hr0.0 mm/hr 0.00 in0.0 mm
02:00 PM 42.7°F5.9°C 39.7°F4.3°C 89% Calm Calm 3.0 mph4.8 kmh 30.21 in1023.0 mb 0.00 in0.0 mm 0.00 in/hr0.0 mm/hr 0.00 in0.0 mm
01:45 PM 42.8°F6.0°C 39.8°F4.3°C 89% 1.0 mph W1.6 kmh W 2.0 mph3.2 kmh 30.22 in1023.4 mb 0.00 in0.0 mm 0.00 in/hr0.0 mm/hr 0.00 in0.0 mm
01:30 PM 42.8°F6.0°C 39.5°F4.2°C 88% Calm Calm 3.0 mph4.8 kmh 30.22 in1023.4 mb 0.00 in0.0 mm 0.00 in/hr0.0 mm/hr 0.00 in0.0 mm
01:15 PM 42.5°F5.8°C 39.2°F4.0°C 88% 1.0 mph SW1.6 kmh SW 3.0 mph4.8 kmh 30.22 in1023.4 mb 0.00 in0.0 mm 0.00 in/hr0.0 mm/hr 0.00 in0.0 mm
01:00 PM 42.4°F5.8°C 39.4°F4.1°C 89% 2.0 mph WSW3.2 kmh WSW 3.0 mph4.8 kmh 30.23 in1023.7 mb 0.00 in0.0 mm 0.00 in/hr0.0 mm/hr 0.00 in0.0 mm
12:45 PM 42.5°F5.8°C 39.2°F4.0°C 88% 1.0 mph SW1.6 kmh SW 3.0 mph4.8 kmh 30.23 in1023.7 mb 0.00 in0.0 mm 0.00 in/hr0.0 mm/hr 0.00 in0.0 mm
12:30 PM 42.7°F5.9°C 39.4°F4.1°C 88% Calm Calm 1.0 mph1.6 kmh 30.24 in1024.0 mb 0.00 in0.0 mm 0.00 in/hr0.0 mm/hr 0.00 in0.0 mm
12:15 PM 42.7°F5.9°C 39.4°F4.1°C 88% Calm Calm -- 30.25 in1024.4 mb 0.00 in0.0 mm 0.00 in/hr0.0 mm/hr 0.00 in0.0 mm
12:00 PM 42.5°F5.8°C 39.2°F4.0°C 88% Calm Calm 2.0 mph3.2 kmh 30.25 in1024.4 mb 0.00 in0.0 mm 0.00 in/hr0.0 mm/hr 0.00 in0.0 mm
11:45 AM 42.4°F5.8°C 39.1°F3.9°C 88% Calm Calm 1.0 mph1.6 kmh 30.26 in1024.7 mb 0.00 in0.0 mm 0.00 in/hr0.0 mm/hr 0.00 in0.0 mm
11:30 AM 42.5°F5.8°C 39.2°F4.0°C 88% Calm Calm 1.0 mph1.6 kmh 30.27 in1025.1 mb 0.00 in0.0 mm 0.00 in/hr0.0 mm/hr 0.00 in0.0 mm
11:15 AM 42.5°F5.8°C 39.2°F4.0°C 88% Calm Calm 2.0 mph3.2 kmh 30.28 in1025.4 mb 0.00 in0.0 mm 0.00 in/hr0.0 mm/hr 0.00 in0.0 mm
11:00 AM 42.3°F5.7°C 39.3°F4.1°C 89% Calm Calm 1.0 mph1.6 kmh 30.28 in1025.4 mb 0.00 in0.0 mm 0.00 in/hr0.0 mm/hr 0.00 in0.0 mm
10:45 AM 42.3°F5.7°C 39.3°F4.1°C 89% Calm Calm 1.0 mph1.6 kmh 30.28 in1025.4 mb 0.00 in0.0 mm 0.00 in/hr0.0 mm/hr 0.00 in0.0 mm
10:30 AM 42.2°F5.7°C 39.2°F4.0°C 89% Calm Calm 2.0 mph3.2 kmh 30.28 in1025.4 mb 0.00 in0.0 mm 0.00 in/hr0.0 mm/hr 0.00 in0.0 mm
10:15 AM 42.2°F5.7°C 39.2°F4.0°C 89% Calm Calm 1.0 mph1.6 kmh 30.29 in1025.7 mb 0.00 in0.0 mm 0.00 in/hr0.0 mm/hr 0.00 in0.0 mm
10:00 AM 42.0°F5.6°C 39.0°F3.9°C 89% Calm Calm 1.0 mph1.6 kmh 30.29 in1025.7 mb 0.00 in0.0 mm 0.00 in/hr0.0 mm/hr 0.00 in0.0 mm
09:45 AM 42.0°F5.6°C 39.0°F3.9°C 89% 1.0 mph SSE1.6 kmh SSE 2.0 mph3.2 kmh 30.28 in1025.4 mb 0.00 in0.0 mm 0.00 in/hr0.0 mm/hr 0.00 in0.0 mm
09:30 AM 41.9°F5.5°C 38.9°F3.8°C 89% Calm Calm 1.0 mph1.6 kmh 30.27 in1025.1 mb 0.00 in0.0 mm 0.00 in/hr0.0 mm/hr 0.00 in0.0 mm
09:15 AM 41.9°F5.5°C 38.9°F3.8°C 89% Calm Calm 1.0 mph1.6 kmh 30.27 in1025.1 mb 0.00 in0.0 mm 0.00 in/hr0.0 mm/hr 0.00 in0.0 mm
09:00 AM 41.9°F5.5°C 38.9°F3.8°C 89% 1.0 mph ESE1.6 kmh ESE 2.0 mph3.2 kmh 30.26 in1024.7 mb 0.00 in0.0 mm 0.00 in/hr0.0 mm/hr 0.00 in0.0 mm
08:45 AM 41.8°F5.4°C 38.8°F3.8°C 89% 1.0 mph E1.6 kmh E 1.0 mph1.6 kmh 30.25 in1024.4 mb 0.00 in0.0 mm 0.00 in/hr0.0 mm/hr 0.00 in0.0 mm
08:30 AM 41.9°F5.5°C 38.9°F3.8°C 89% Calm Calm 2.0 mph3.2 kmh 30.26 in1024.7 mb 0.00 in0.0 mm 0.00 in/hr0.0 mm/hr 0.00 in0.0 mm
08:15 AM 41.9°F5.5°C 38.9°F3.8°C 89% 1.0 mph NE1.6 kmh NE 2.0 mph3.2 kmh 30.25 in1024.4 mb 0.00 in0.0 mm 0.00 in/hr0.0 mm/hr 0.00 in0.0 mm
08:00 AM 41.9°F5.5°C 38.9°F3.8°C 89% 1.0 mph NE1.6 kmh NE 2.0 mph3.2 kmh 30.25 in1024.4 mb 0.00 in0.0 mm 0.00 in/hr0.0 mm/hr 0.00 in0.0 mm
07:45 AM 41.8°F5.4°C 38.8°F3.8°C 89% 1.0 mph ENE1.6 kmh ENE 1.0 mph1.6 kmh 30.25 in1024.4 mb 0.00 in0.0 mm 0.00 in/hr0.0 mm/hr 0.00 in0.0 mm
07:30 AM 41.9°F5.5°C 38.6°F3.7°C 88% Calm Calm 3.0 mph4.8 kmh 30.25 in1024.4 mb 0.00 in0.0 mm 0.00 in/hr0.0 mm/hr 0.00 in0.0 mm
07:15 AM 42.1°F5.6°C 38.8°F3.8°C 88% Calm Calm 2.0 mph3.2 kmh 30.25 in1024.4 mb 0.00 in0.0 mm 0.00 in/hr0.0 mm/hr 0.00 in0.0 mm
07:00 AM 42.1°F5.6°C 38.8°F3.8°C 88% Calm Calm 1.0 mph1.6 kmh 30.25 in1024.4 mb 0.00 in0.0 mm 0.00 in/hr0.0 mm/hr 0.00 in0.0 mm
06:45 AM 42.1°F5.6°C 38.8°F3.8°C 88% Calm Calm -- 30.25 in1024.4 mb 0.00 in0.0 mm 0.00 in/hr0.0 mm/hr 0.00 in0.0 mm
06:30 AM 42.1°F5.6°C 38.8°F3.8°C 88% 1.0 mph SE1.6 kmh SE 1.0 mph1.6 kmh 30.25 in1024.4 mb 0.00 in0.0 mm 0.00 in/hr0.0 mm/hr 0.00 in0.0 mm
06:15 AM 42.2°F5.7°C 38.9°F3.8°C 88% 1.0 mph ENE1.6 kmh ENE 1.0 mph1.6 kmh 30.25 in1024.4 mb 0.00 in0.0 mm 0.00 in/hr0.0 mm/hr 0.00 in0.0 mm
06:00 AM 42.2°F5.7°C 38.9°F3.8°C 88% Calm Calm 2.0 mph3.2 kmh 30.24 in1024.0 mb 0.00 in0.0 mm 0.00 in/hr0.0 mm/hr 0.00 in0.0 mm
05:45 AM 42.3°F5.7°C 39.0°F3.9°C 88% Calm Calm -- 30.23 in1023.7 mb 0.00 in0.0 mm 0.00 in/hr0.0 mm/hr 0.00 in0.0 mm
05:30 AM 42.3°F5.7°C 39.0°F3.9°C 88% Calm Calm 1.0 mph1.6 kmh 30.23 in1023.7 mb 0.00 in0.0 mm 0.00 in/hr0.0 mm/hr 0.00 in0.0 mm
05:15 AM 42.3°F5.7°C 39.0°F3.9°C 88% Calm Calm 4.0 mph6.4 kmh 30.23 in1023.7 mb 0.00 in0.0 mm 0.00 in/hr0.0 mm/hr 0.00 in0.0 mm
05:00 AM 42.3°F5.7°C 38.7°F3.7°C 87% Calm Calm 2.0 mph3.2 kmh 30.23 in1023.7 mb 0.00 in0.0 mm 0.00 in/hr0.0 mm/hr 0.00 in0.0 mm
04:45 AM 42.3°F5.7°C 38.7°F3.7°C 87% Calm Calm -- 30.23 in1023.7 mb 0.00 in0.0 mm 0.00 in/hr0.0 mm/hr 0.00 in0.0 mm
04:30 AM 42.4°F5.8°C 38.8°F3.8°C 87% Calm Calm 1.0 mph1.6 kmh 30.23 in1023.7 mb 0.00 in0.0 mm 0.00 in/hr0.0 mm/hr 0.00 in0.0 mm
04:15 AM 42.4°F5.8°C 38.8°F3.8°C 87% Calm Calm 1.0 mph1.6 kmh 30.23 in1023.7 mb 0.00 in0.0 mm 0.00 in/hr0.0 mm/hr 0.00 in0.0 mm
04:00 AM 42.5°F5.8°C 38.9°F3.8°C 87% Calm Calm 2.0 mph3.2 kmh 30.24 in1024.0 mb 0.00 in0.0 mm 0.00 in/hr0.0 mm/hr 0.00 in0.0 mm
03:45 AM 42.4°F5.8°C 38.8°F3.8°C 87% Calm Calm -- 30.24 in1024.0 mb 0.00 in0.0 mm 0.00 in/hr0.0 mm/hr 0.00 in0.0 mm
03:30 AM 42.5°F5.8°C 38.6°F3.7°C 86% Calm Calm 1.0 mph1.6 kmh 30.24 in1024.0 mb 0.00 in0.0 mm 0.00 in/hr0.0 mm/hr 0.00 in0.0 mm
03:15 AM 42.5°F5.8°C 38.6°F3.7°C 86% Calm Calm -- 30.24 in1024.0 mb 0.00 in0.0 mm 0.00 in/hr0.0 mm/hr 0.00 in0.0 mm
03:00 AM 42.5°F5.8°C 38.6°F3.7°C 86% Calm Calm 1.0 mph1.6 kmh 30.24 in1024.0 mb 0.00 in0.0 mm 0.00 in/hr0.0 mm/hr 0.00 in0.0 mm
02:45 AM 42.5°F5.8°C 38.6°F3.7°C 86% Calm Calm 1.0 mph1.6 kmh 30.24 in1024.0 mb 0.00 in0.0 mm 0.00 in/hr0.0 mm/hr 0.00 in0.0 mm
02:30 AM 42.5°F5.8°C 38.6°F3.7°C 86% Calm Calm 1.0 mph1.6 kmh 30.23 in1023.7 mb 0.00 in0.0 mm 0.00 in/hr0.0 mm/hr 0.00 in0.0 mm
02:15 AM 42.6°F5.9°C 39.0°F3.9°C 87% Calm Calm 1.0 mph1.6 kmh 30.23 in1023.7 mb 0.00 in0.0 mm 0.00 in/hr0.0 mm/hr 0.00 in0.0 mm
02:00 AM 42.5°F5.8°C 38.9°F3.8°C 87% Calm Calm 2.0 mph3.2 kmh 30.23 in1023.7 mb 0.00 in0.0 mm 0.00 in/hr0.0 mm/hr 0.00 in0.0 mm
01:45 AM 42.5°F5.8°C 38.9°F3.8°C 87% Calm Calm 1.0 mph1.6 kmh 30.23 in1023.7 mb 0.00 in0.0 mm 0.00 in/hr0.0 mm/hr 0.00 in0.0 mm
01:30 AM 42.6°F5.9°C 39.3°F4.1°C 88% Calm Calm -- 30.23 in1023.7 mb 0.00 in0.0 mm 0.00 in/hr0.0 mm/hr 0.00 in0.0 mm
01:15 AM 42.6°F5.9°C 39.3°F4.1°C 88% Calm Calm 1.0 mph1.6 kmh 30.23 in1023.7 mb 0.00 in0.0 mm 0.00 in/hr0.0 mm/hr 0.00 in0.0 mm
01:00 AM 42.5°F5.8°C 39.2°F4.0°C 88% Calm Calm 1.0 mph1.6 kmh 30.23 in1023.7 mb 0.00 in0.0 mm 0.00 in/hr0.0 mm/hr 0.00 in0.0 mm
12:45 AM 42.5°F5.8°C 39.2°F4.0°C 88% Calm Calm -- 30.23 in1023.7 mb 0.00 in0.0 mm 0.00 in/hr0.0 mm/hr 0.00 in0.0 mm
12:30 AM 42.5°F5.8°C 39.5°F4.2°C 89% 1.0 mph ENE1.6 kmh ENE 1.0 mph1.6 kmh 30.24 in1024.0 mb 0.00 in0.0 mm 0.00 in/hr0.0 mm/hr 0.00 in0.0 mm
12:15 AM 42.5°F5.8°C 40.1°F4.5°C 91% Calm Calm 2.0 mph3.2 kmh 30.23 in1023.7 mb 0.00 in0.0 mm 0.00 in/hr0.0 mm/hr 0.00 in0.0 mm
12:00 AM 42.6°F5.9°C 40.7°F4.8°C 93% Calm Calm 1.0 mph1.6 kmh 30.23 in1023.7 mb 0.00 in0.0 mm 0.00 in/hr0.0 mm/hr 0.00 in0.0 mm